Time;durP1;ratioP1;P1;durP2;ratioP2;P2;SDS_P1;SDS_P2;PMS_P1;PMS_P2;Temp;Humidity;BMP_temperature;BMP_pressure;BME280_temperature;BME280_humidity;BME280_pressure;Samples;Min_cycle;Max_cycle;Signal;HPM_P1;HPM_P2
2022/02/19 00:00:59;;;;;;;4.43;1.45;;;3.90;99.90;;;;;;2082499;28;20222;-72
2022/02/19 00:02:01;;;;;;;5.50;1.00;;;3.90;99.90;;;;;;2084496;28;20188;-71
2022/02/19 00:03:01;;;;;;;5.13;1.10;;;3.80;99.90;;;;;;2081455;28;20184;-69
2022/02/19 00:04:03;;;;;;;2.10;1.10;;;3.80;99.90;;;;;;2076148;28;20277;-66
2022/02/19 00:05:05;;;;;;;3.88;1.33;;;3.80;99.90;;;;;;2056239;28;20190;-69
2022/02/19 00:06:06;;;;;;;8.10;1.52;;;3.90;99.90;;;;;;2056800;28;20206;-67
2022/02/19 00:07:06;;;;;;;4.70;1.13;;;3.80;99.90;;;;;;2071990;28;20204;-72
2022/02/19 00:08:08;;;;;;;5.70;1.20;;;3.70;99.90;;;;;;2081046;28;20188;-72
2022/02/19 00:09:09;;;;;;;4.97;1.20;;;3.70;99.90;;;;;;2080589;28;20186;-66
2022/02/19 00:10:11;;;;;;;6.07;1.20;;;3.60;99.90;;;;;;2081827;28;20644;-68
2022/02/19 00:11:12;;;;;;;5.97;1.20;;;3.60;99.90;;;;;;2081018;28;20192;-69
2022/02/19 00:12:13;;;;;;;5.40;1.10;;;3.50;99.90;;;;;;2072093;28;20275;-71
2022/02/19 00:13:13;;;;;;;2.30;1.10;;;3.50;99.90;;;;;;2066231;28;20200;-73
2022/02/19 00:14:14;;;;;;;3.47;0.90;;;3.40;99.90;;;;;;2072480;28;20202;-70
2022/02/19 00:15:15;;;;;;;4.90;1.00;;;3.30;99.90;;;;;;2063677;28;20196;-70
2022/02/19 00:16:15;;;;;;;2.50;0.87;;;3.10;99.90;;;;;;2058571;28;20313;-71
2022/02/19 00:17:16;;;;;;;3.10;1.03;;;3.00;99.90;;;;;;2077009;28;20187;-67
2022/02/19 00:18:16;;;;;;;1.50;0.70;;;2.90;99.90;;;;;;2072327;28;20185;-70
2022/02/19 00:19:19;;;;;;;2.10;0.77;;;2.80;99.90;;;;;;2065495;28;20177;-69
2022/02/19 00:20:19;;;;;;;2.88;0.77;;;2.80;99.90;;;;;;2074224;28;20181;-66
2022/02/19 00:21:20;;;;;;;1.90;0.70;;;2.80;99.90;;;;;;2072291;28;20722;-67
2022/02/19 00:22:22;;;;;;;1.37;0.87;;;2.90;99.90;;;;;;2063950;28;20185;-67
2022/02/19 00:23:26;;;;;;;0.82;0.45;;;2.90;99.90;;;;;;2063948;28;20287;-67
2022/02/19 00:24:26;;;;;;;2.28;0.90;;;2.90;99.90;;;;;;2064938;28;20256;-68
2022/02/19 00:25:27;;;;;;;3.20;0.90;;;2.90;99.90;;;;;;2064621;28;20184;-67
2022/02/19 00:26:28;;;;;;;1.90;0.70;;;2.90;99.90;;;;;;2072423;28;20174;-67
2022/02/19 00:27:28;;;;;;;4.77;1.13;;;2.90;99.90;;;;;;2081417;28;20170;-67
2022/02/19 00:28:29;;;;;;;2.53;0.90;;;2.90;99.90;;;;;;2081414;28;20168;-67
2022/02/19 00:29:30;;;;;;;1.97;0.90;;;2.90;99.90;;;;;;2081031;28;20175;-66
2022/02/19 00:30:31;;;;;;;1.20;0.80;;;2.90;99.90;;;;;;2081422;28;20183;-66
2022/02/19 00:31:31;;;;;;;3.87;0.83;;;3.00;99.90;;;;;;2072621;28;20254;-67
2022/02/19 00:32:32;;;;;;;1.80;0.70;;;3.00;99.90;;;;;;2072049;28;20174;-67
2022/02/19 00:33:33;;;;;;;2.47;0.98;;;3.00;99.90;;;;;;2080735;28;20225;-67
2022/02/19 00:34:35;;;;;;;3.55;1.10;;;3.00;99.90;;;;;;2081586;28;20185;-67
2022/02/19 00:35:36;;;;;;;1.70;1.00;;;3.00;99.90;;;;;;2080492;28;20253;-67
2022/02/19 00:36:36;;;;;;;3.07;1.00;;;3.10;99.90;;;;;;2081067;28;20193;-67
2022/02/19 00:37:37;;;;;;;3.67;1.60;;;3.10;99.90;;;;;;2072603;28;20191;-66
2022/02/19 00:38:38;;;;;;;4.53;1.33;;;3.00;99.90;;;;;;2056452;28;20183;-67
2022/02/19 00:39:39;;;;;;;2.07;0.90;;;3.00;99.90;;;;;;2056543;28;20440;-66
2022/02/19 00:40:39;;;;;;;7.43;2.00;;;3.10;99.90;;;;;;2072790;28;20683;-67
2022/02/19 00:41:41;;;;;;;2.07;1.17;;;3.10;99.90;;;;;;2081532;28;20209;-67
2022/02/19 00:42:42;;;;;;;5.82;1.20;;;3.10;99.90;;;;;;2081199;28;20179;-69
2022/02/19 00:43:43;;;;;;;4.33;0.93;;;3.10;99.90;;;;;;2081220;28;20194;-67
2022/02/19 00:44:43;;;;;;;5.32;1.55;;;3.10;99.90;;;;;;2072471;28;20185;-68
2022/02/19 00:45:44;;;;;;;6.67;1.13;;;3.10;99.90;;;;;;2064048;28;20716;-67
2022/02/19 00:46:45;;;;;;;4.13;1.40;;;3.10;99.90;;;;;;2072526;28;20180;-67
2022/02/19 00:47:45;;;;;;;4.17;0.90;;;3.10;99.90;;;;;;2081291;28;20210;-67
2022/02/19 00:48:46;;;;;;;4.80;1.03;;;3.10;99.90;;;;;;2081607;28;20275;-67
2022/02/19 00:49:47;;;;;;;5.63;1.40;;;3.10;99.90;;;;;;2064312;28;20188;-67
2022/02/19 00:50:49;;;;;;;4.10;1.20;;;3.20;99.90;;;;;;2064571;28;20192;-67
2022/02/19 00:51:50;;;;;;;4.28;1.42;;;3.10;99.90;;;;;;2081394;28;20509;-67
2022/02/19 00:52:54;;;;;;;6.23;1.80;;;3.20;99.90;;;;;;2072407;28;20196;-67
2022/02/19 00:53:56;;;;;;;4.47;1.58;;;3.20;99.90;;;;;;2073379;28;20177;-67
2022/02/19 00:54:56;;;;;;;5.45;1.42;;;3.20;99.90;;;;;;2081367;28;20192;-66
2022/02/19 00:55:57;;;;;;;2.43;1.13;;;3.20;99.90;;;;;;2081093;28;20311;-68
2022/02/19 00:56:58;;;;;;;5.23;1.73;;;3.20;99.90;;;;;;2072555;28;20652;-68
2022/02/19 00:57:58;;;;;;;4.83;1.10;;;3.20;99.90;;;;;;2064489;28;20692;-68
2022/02/19 00:58:59;;;;;;;3.67;0.93;;;3.20;99.90;;;;;;2072741;28;20170;-68
2022/02/19 01:00:00;;;;;;;2.17;1.00;;;3.20;99.90;;;;;;2081277;28;20187;-68
2022/02/19 01:01:00;;;;;;;5.27;1.23;;;3.20;99.90;;;;;;2072540;28;20176;-68
2022/02/19 01:02:02;;;;;;;6.00;1.10;;;3.20;99.90;;;;;;2072607;28;20184;-68
2022/02/19 01:03:03;;;;;;;5.22;1.30;;;3.20;99.90;;;;;;2081327;28;20183;-68
2022/02/19 01:04:03;;;;;;;4.43;1.10;;;3.30;99.90;;;;;;2081080;28;20623;-68
2022/02/19 01:05:05;;;;;;;2.67;1.00;;;3.30;99.90;;;;;;2072293;28;20459;-68
2022/02/19 01:06:06;;;;;;;3.47;0.90;;;3.30;99.90;;;;;;2072323;28;20199;-68
2022/02/19 01:07:06;;;;;;;9.03;2.13;;;3.20;99.90;;;;;;2081264;28;20183;-68
2022/02/19 01:08:07;;;;;;;4.67;1.10;;;3.30;99.90;;;;;;2081509;28;20549;-68
2022/02/19 01:09:08;;;;;;;3.77;1.00;;;3.30;99.90;;;;;;2072290;28;20637;-68
2022/02/19 01:10:09;;;;;;;4.40;1.03;;;3.30;99.90;;;;;;2072503;28;20196;-68
2022/02/19 01:11:10;;;;;;;10.73;1.10;;;3.20;99.90;;;;;;2072330;28;20207;-68
2022/02/19 01:12:11;;;;;;;3.92;1.30;;;3.20;99.90;;;;;;2064400;28;20174;-69
2022/02/19 01:13:12;;;;;;;1.80;0.80;;;3.10;99.90;;;;;;2072533;28;20270;-68
2022/02/19 01:14:12;;;;;;;5.17;1.10;;;3.10;99.90;;;;;;2081197;28;20195;-68
2022/02/19 01:15:13;;;;;;;3.83;1.57;;;3.10;99.90;;;;;;2080722;28;20819;-68
2022/02/19 01:16:15;;;;;;;3.87;1.47;;;3.20;99.90;;;;;;2081220;28;20217;-68
2022/02/19 01:17:15;;;;;;;7.50;1.58;;;3.20;99.90;;;;;;2072388;28;20280;-68
2022/02/19 01:18:17;;;;;;;2.77;1.10;;;3.20;99.90;;;;;;2064332;28;20188;-68
2022/02/19 01:19:17;;;;;;;5.65;1.73;;;3.20;99.90;;;;;;2056263;28;20254;-68
2022/02/19 01:20:18;;;;;;;6.10;1.27;;;3.20;99.20;;;;;;2064218;28;20563;-68
2022/02/19 01:21:19;;;;;;;3.03;1.20;;;3.20;99.80;;;;;;2072241;28;20175;-69
2022/02/19 01:22:20;;;;;;;2.17;0.90;;;3.20;99.60;;;;;;2064308;28;20183;-68
2022/02/19 01:23:20;;;;;;;6.13;1.10;;;3.20;99.60;;;;;;2072382;28;20183;-69
2022/02/19 01:24:22;;;;;;;3.60;1.43;;;3.20;99.70;;;;;;2072213;28;20185;-68
2022/02/19 01:25:23;;;;;;;4.35;1.00;;;3.20;99.90;;;;;;2080830;28;20193;-68
2022/02/19 01:26:24;;;;;;;4.38;1.30;;;3.20;99.90;;;;;;2081290;28;20816;-69
2022/02/19 01:27:24;;;;;;;2.70;0.93;;;3.20;99.90;;;;;;2081154;28;20211;-68
2022/02/19 01:28:25;;;;;;;2.87;0.97;;;3.20;99.90;;;;;;2080969;28;20650;-69
2022/02/19 01:29:26;;;;;;;3.23;1.00;;;3.30;99.90;;;;;;2064015;28;20604;-68
2022/02/19 01:30:27;;;;;;;3.03;0.87;;;3.30;99.80;;;;;;2056095;28;20334;-68
2022/02/19 01:31:28;;;;;;;4.65;1.05;;;3.20;99.90;;;;;;2064184;28;20185;-69
2022/02/19 01:32:28;;;;;;;4.73;1.10;;;3.20;99.90;;;;;;2072304;28;20183;-68
2022/02/19 01:33:29;;;;;;;10.03;1.57;;;3.20;99.90;;;;;;2072075;28;20422;-69
2022/02/19 01:34:30;;;;;;;4.80;1.10;;;3.20;97.00;;;;;;2064251;28;20222;-68
2022/02/19 01:35:30;;;;;;;5.60;1.10;;;3.30;97.90;;;;;;2071845;28;20191;-69
2022/02/19 01:36:31;;;;;;;9.83;1.63;;;3.30;98.90;;;;;;2071994;28;20181;-69
2022/02/19 01:37:32;;;;;;;8.17;1.43;;;3.20;99.00;;;;;;2072227;28;20192;-68
2022/02/19 01:38:32;;;;;;;3.60;1.13;;;3.20;97.00;;;;;;2072269;28;20308;-69
2022/02/19 01:39:33;;;;;;;3.33;1.20;;;3.20;93.70;;;;;;2072226;28;20192;-69
2022/02/19 01:40:34;;;;;;;4.97;1.20;;;3.20;94.70;;;;;;2081016;28;20192;-69
2022/02/19 01:41:35;;;;;;;4.53;1.00;;;3.20;95.50;;;;;;2080854;28;20182;-68
2022/02/19 01:42:36;;;;;;;3.15;1.08;;;3.20;95.90;;;;;;2072111;28;20546;-69
2022/02/19 01:43:37;;;;;;;3.00;1.40;;;3.20;94.80;;;;;;2072380;28;20192;-68
2022/02/19 01:44:44;;;;;;;3.17;1.13;;;3.10;95.70;;;;;;2080713;28;20287;-69
2022/02/19 01:45:48;;;;;;;2.85;1.45;;;3.10;96.20;;;;;;2072140;28;20764;-67
2022/02/19 01:46:48;;;;;;;2.60;0.93;;;3.20;96.00;;;;;;2071974;28;20189;-68
2022/02/19 01:47:49;;;;;;;2.20;1.00;;;3.10;96.40;;;;;;2080765;28;20179;-67
2022/02/19 01:48:50;;;;;;;6.37;1.33;;;3.20;96.90;;;;;;2071915;28;20180;-68
2022/02/19 01:49:50;;;;;;;4.27;1.13;;;3.20;96.50;;;;;;2072466;28;20229;-67
2022/02/19 01:50:52;;;;;;;7.23;0.90;;;3.10;97.20;;;;;;2080829;28;20190;-67
2022/02/19 01:51:53;;;;;;;5.47;1.38;;;3.10;98.00;;;;;;2072088;28;20184;-68
2022/02/19 01:52:54;;;;;;;6.07;1.07;;;3.00;98.10;;;;;;2072101;28;20182;-68
2022/02/19 01:53:55;;;;;;;1.58;0.70;;;3.10;97.90;;;;;;2072227;28;20211;-68
2022/02/19 01:54:56;;;;;;;4.33;1.10;;;3.10;96.40;;;;;;2063998;28;20732;-68
2022/02/19 01:55:58;;;;;;;5.17;1.50;;;3.10;97.00;;;;;;2071808;28;20222;-67
2022/02/19 01:57:00;;;;;;;3.90;1.10;;;3.00;96.90;;;;;;2072077;28;20756;-68
2022/02/19 01:58:02;;;;;;;4.80;1.73;;;3.10;97.10;;;;;;2072390;28;20199;-68
2022/02/19 01:59:10;;;;;;;3.90;1.23;;;3.10;95.50;;;;;;2080881;28;20180;-68
2022/02/19 02:00:13;;;;;;;6.32;1.25;;;3.10;96.50;;;;;;2071906;28;20259;-67
2022/02/19 02:01:14;;;;;;;6.40;1.35;;;3.10;96.00;;;;;;2072720;28;20201;-68
2022/02/19 02:02:14;;;;;;;3.20;1.10;;;3.10;96.20;;;;;;2080785;28;20176;-67
2022/02/19 02:03:15;;;;;;;4.87;1.30;;;3.10;96.60;;;;;;2080882;28;20593;-67
2022/02/19 02:04:16;;;;;;;6.07;1.30;;;3.10;95.60;;;;;;2080928;28;20179;-68
2022/02/19 02:05:16;;;;;;;5.50;1.20;;;3.10;96.00;;;;;;2071595;28;20191;-67
2022/02/19 02:06:19;;;;;;;8.13;1.40;;;3.00;94.70;;;;;;2064158;28;20184;-67
2022/02/19 02:07:21;;;;;;;8.90;1.45;;;3.10;95.70;;;;;;2072174;28;20201;-67
2022/02/19 02:08:22;;;;;;;9.07;1.38;;;3.00;95.90;;;;;;2072023;28;20180;-67
2022/02/19 02:09:23;;;;;;;2.30;0.80;;;3.00;96.00;;;;;;2063952;28;20919;-67
2022/02/19 02:10:24;;;;;;;3.28;1.00;;;3.10;95.80;;;;;;2063892;28;20980;-68
2022/02/19 02:11:26;;;;;;;4.30;1.37;;;3.10;95.00;;;;;;2071981;28;20244;-67
2022/02/19 02:12:26;;;;;;;2.10;1.30;;;3.10;93.90;;;;;;2080208;28;20177;-68
2022/02/19 02:13:27;;;;;;;3.73;1.20;;;3.10;94.30;;;;;;2071952;28;20177;-68
2022/02/19 02:14:28;;;;;;;2.80;1.53;;;3.10;94.50;;;;;;2072079;28;20191;-67
2022/02/19 02:15:33;;;;;;;5.83;1.30;;;3.00;93.40;;;;;;2079582;28;20227;-67
2022/02/19 02:16:38;;;;;;;5.05;2.08;;;3.00;95.20;;;;;;2071903;28;20180;-68
2022/02/19 02:17:40;;;;;;;3.10;1.38;;;3.00;94.70;;;;;;2064620;28;20193;-67
2022/02/19 02:18:43;;;;;;;4.18;1.33;;;3.00;94.40;;;;;;2063925;28;20177;-68
2022/02/19 02:19:44;;;;;;;2.70;1.52;;;3.00;93.80;;;;;;2064213;28;20201;-68
2022/02/19 02:20:45;;;;;;;2.27;1.00;;;3.00;94.20;;;;;;2072064;28;20648;-67
2022/02/19 02:21:45;;;;;;;4.73;1.70;;;3.10;92.70;;;;;;2071965;28;20183;-67
2022/02/19 02:22:46;;;;;;;3.90;1.23;;;3.10;93.60;;;;;;2072017;28;20185;-68
2022/02/19 02:23:47;;;;;;;5.70;1.17;;;3.00;93.20;;;;;;2063613;28;20869;-68
2022/02/19 02:24:49;;;;;;;6.13;1.73;;;3.00;93.90;;;;;;2047800;29;20205;-68
2022/02/19 02:25:52;;;;;;;5.05;1.20;;;3.00;93.80;;;;;;2063779;28;20203;-68
2022/02/19 02:26:54;;;;;;;3.65;1.20;;;3.00;93.20;;;;;;2072051;28;20183;-67
2022/02/19 02:27:56;;;;;;;4.15;1.20;;;3.00;93.70;;;;;;2064276;28;20180;-67
2022/02/19 02:28:57;;;;;;;2.70;1.05;;;3.00;93.20;;;;;;2063935;28;20250;-67
2022/02/19 02:29:57;;;;;;;4.00;1.20;;;3.00;93.90;;;;;;2064022;28;20280;-67
2022/02/19 02:30:58;;;;;;;4.53;1.23;;;3.00;93.80;;;;;;2071992;28;20613;-67
2022/02/19 02:31:59;;;;;;;3.87;1.27;;;2.90;93.10;;;;;;2071903;28;20189;-67
2022/02/19 02:33:13;;;;;;;4.87;1.40;;;3.00;93.60;;;;;;2063816;28;20181;-67
2022/02/19 02:34:13;;;;;;;4.00;1.52;;;3.00;93.80;;;;;;2074098;28;20266;-67
2022/02/19 02:35:15;;;;;;;6.70;1.83;;;2.90;93.40;;;;;;2080401;28;20210;-67
2022/02/19 02:36:17;;;;;;;7.78;1.30;;;2.90;92.90;;;;;;2071845;28;20208;-67
2022/02/19 02:37:17;;;;;;;7.53;1.23;;;2.90;93.50;;;;;;2064284;28;20181;-67
2022/02/19 02:38:18;;;;;;;5.77;1.90;;;2.90;92.80;;;;;;2072062;28;20602;-67
2022/02/19 02:39:19;;;;;;;5.43;1.10;;;2.90;92.80;;;;;;2071850;28;20177;-68
2022/02/19 02:40:19;;;;;;;4.37;1.53;;;3.00;92.20;;;;;;2071614;28;20177;-67
2022/02/19 02:41:21;;;;;;;4.37;1.07;;;3.00;92.80;;;;;;2080584;28;20174;-67
2022/02/19 02:42:22;;;;;;;6.95;2.25;;;2.90;91.50;;;;;;2080931;28;20273;-67
2022/02/19 02:43:22;;;;;;;6.17;1.07;;;3.00;91.80;;;;;;2071883;28;20231;-67
2022/02/19 02:44:23;;;;;;;4.73;1.30;;;2.90;91.30;;;;;;2063792;28;20184;-67
2022/02/19 02:45:24;;;;;;;8.37;1.50;;;2.90;90.80;;;;;;2071528;28;20177;-67
2022/02/19 02:46:25;;;;;;;4.57;1.13;;;3.00;89.10;;;;;;2080833;28;20184;-67
2022/02/19 02:47:26;;;;;;;3.70;1.10;;;2.90;90.70;;;;;;2071990;28;20187;-67
2022/02/19 02:48:26;;;;;;;3.53;1.47;;;3.00;90.80;;;;;;2063936;28;20185;-67
2022/02/19 02:49:27;;;;;;;3.67;1.27;;;3.00;90.00;;;;;;2071914;28;20180;-67
2022/02/19 02:50:28;;;;;;;3.67;1.47;;;2.90;90.70;;;;;;2080760;28;20187;-68
2022/02/19 02:51:28;;;;;;;4.67;1.20;;;3.00;91.50;;;;;;2072176;28;20192;-67
2022/02/19 02:52:29;;;;;;;4.90;1.60;;;2.90;90.70;;;;;;2063879;28;20188;-67
2022/02/19 02:53:30;;;;;;;2.72;1.50;;;2.90;88.90;;;;;;2064151;28;20188;-67
2022/02/19 02:54:31;;;;;;;5.30;1.53;;;3.00;89.90;;;;;;2063921;28;20189;-68
2022/02/19 02:55:32;;;;;;;4.70;1.67;;;2.90;90.30;;;;;;2071629;28;20223;-68
2022/02/19 02:56:32;;;;;;;8.93;2.13;;;2.90;91.40;;;;;;2080607;28;20182;-68
2022/02/19 02:57:35;;;;;;;6.17;1.00;;;2.90;91.20;;;;;;2080507;28;20177;-68
2022/02/19 02:58:36;;;;;;;3.88;1.20;;;2.90;91.70;;;;;;2080580;28;20230;-68
2022/02/19 02:59:36;;;;;;;9.27;1.50;;;3.00;91.90;;;;;;2081074;28;20265;-68
2022/02/19 03:00:37;;;;;;;6.37;2.00;;;2.90;91.70;;;;;;2065352;28;20180;-68
2022/02/19 03:01:38;;;;;;;7.43;1.50;;;2.90;91.50;;;;;;2057055;28;20169;-68
2022/02/19 03:02:39;;;;;;;6.10;2.00;;;2.90;92.90;;;;;;2073391;28;20184;-68
2022/02/19 03:03:40;;;;;;;4.90;1.40;;;2.90;92.10;;;;;;2082033;28;20904;-68
2022/02/19 03:04:41;;;;;;;5.10;1.70;;;2.80;92.10;;;;;;2082238;28;20179;-68
2022/02/19 03:05:42;;;;;;;4.20;1.10;;;2.80;91.10;;;;;;2073064;28;20195;-68
2022/02/19 03:06:42;;;;;;;6.63;1.80;;;2.90;91.00;;;;;;2065233;28;20189;-68
2022/02/19 03:07:43;;;;;;;3.40;1.33;;;2.90;91.30;;;;;;2073305;28;20189;-68
2022/02/19 03:08:43;;;;;;;6.67;1.47;;;2.90;90.80;;;;;;2073222;28;20176;-68
2022/02/19 03:09:44;;;;;;;3.03;1.40;;;2.90;91.60;;;;;;2064910;28;20193;-68
2022/02/19 03:10:45;;;;;;;3.97;1.30;;;2.90;91.50;;;;;;2065175;28;20185;-68
2022/02/19 03:11:46;;;;;;;5.40;1.40;;;2.80;92.10;;;;;;2081179;28;20184;-68
2022/02/19 03:12:47;;;;;;;5.13;1.50;;;2.80;91.20;;;;;;2073201;28;20184;-68
2022/02/19 03:13:48;;;;;;;7.18;1.33;;;2.90;90.60;;;;;;2056905;28;20275;-68
2022/02/19 03:14:48;;;;;;;4.23;1.03;;;2.90;90.50;;;;;;2065052;28;20192;-67
2022/02/19 03:15:49;;;;;;;5.33;1.40;;;2.90;90.00;;;;;;2072852;28;20266;-67
2022/02/19 03:16:50;;;;;;;4.80;1.63;;;2.90;90.60;;;;;;2081766;28;20321;-68
2022/02/19 03:17:50;;;;;;;4.83;1.40;;;2.90;90.90;;;;;;2082057;28;20186;-68
2022/02/19 03:18:51;;;;;;;6.83;1.30;;;2.90;91.00;;;;;;2081863;28;20188;-68
2022/02/19 03:19:52;;;;;;;6.00;1.20;;;2.90;90.90;;;;;;2073189;28;20554;-67
2022/02/19 03:20:52;;;;;;;6.70;1.83;;;2.90;90.70;;;;;;2073120;28;20559;-68
2022/02/19 03:21:53;;;;;;;9.90;1.40;;;2.90;91.50;;;;;;2081903;28;20174;-68
2022/02/19 03:22:54;;;;;;;6.63;1.47;;;2.80;91.70;;;;;;2073123;28;20195;-68
2022/02/19 03:23:55;;;;;;;2.73;1.10;;;2.90;91.40;;;;;;2065065;28;20188;-68
2022/02/19 03:24:55;;;;;;;6.87;1.27;;;2.90;92.10;;;;;;2073070;28;20423;-68
2022/02/19 03:25:56;;;;;;;5.57;1.30;;;2.90;92.00;;;;;;2081807;28;20207;-68
2022/02/19 03:26:58;;;;;;;4.10;1.20;;;2.80;92.30;;;;;;2073024;28;20195;-68
2022/02/19 03:27:59;;;;;;;4.63;1.50;;;2.80;92.80;;;;;;2073318;28;20209;-68
2022/02/19 03:29:00;;;;;;;6.27;1.57;;;2.80;92.70;;;;;;2073200;28;20728;-67
2022/02/19 03:30:00;;;;;;;5.67;1.13;;;2.80;92.80;;;;;;2065151;28;20299;-68
2022/02/19 03:31:01;;;;;;;4.33;1.23;;;2.90;92.60;;;;;;2065093;28;20246;-68
2022/02/19 03:32:04;;;;;;;8.13;2.20;;;2.90;93.10;;;;;;2073095;28;20178;-68
2022/02/19 03:33:05;;;;;;;6.63;1.30;;;2.90;92.40;;;;;;2073053;28;20181;-68
2022/02/19 03:34:06;;;;;;;6.80;1.30;;;2.80;91.80;;;;;;2064671;28;20189;-68
2022/02/19 03:35:07;;;;;;;6.27;1.53;;;2.80;92.30;;;;;;2072945;28;20195;-68
2022/02/19 03:36:08;;;;;;;4.55;1.40;;;2.80;91.50;;;;;;2072729;28;20219;-68
2022/02/19 03:37:09;;;;;;;5.77;0.97;;;2.80;92.00;;;;;;2072717;28;20287;-68
2022/02/19 03:38:10;;;;;;;8.98;1.80;;;2.80;91.50;;;;;;2081833;28;20197;-67
2022/02/19 03:39:10;;;;;;;3.43;1.40;;;2.80;91.00;;;;;;2081214;28;20178;-68
2022/02/19 03:40:11;;;;;;;3.77;1.50;;;2.70;92.70;;;;;;2064498;28;20187;-68
2022/02/19 03:41:12;;;;;;;6.17;1.10;;;2.70;91.90;;;;;;2064870;28;20649;-68
2022/02/19 03:42:12;;;;;;;3.77;1.10;;;2.80;92.00;;;;;;2081871;28;20203;-68
2022/02/19 03:43:13;;;;;;;3.23;1.63;;;2.80;91.50;;;;;;2081677;28;20168;-68
2022/02/19 03:44:14;;;;;;;5.50;1.50;;;2.80;90.40;;;;;;2081623;28;20175;-68
2022/02/19 03:45:15;;;;;;;2.93;1.23;;;2.80;90.70;;;;;;2072555;28;20197;-68
2022/02/19 03:46:16;;;;;;;6.23;1.40;;;2.80;91.80;;;;;;2056669;28;20181;-68
2022/02/19 03:47:16;;;;;;;3.03;1.50;;;2.70;92.00;;;;;;2056916;28;20200;-68
2022/02/19 03:48:17;;;;;;;7.23;1.40;;;2.70;90.80;;;;;;2073124;28;20264;-68
2022/02/19 03:49:18;;;;;;;8.10;1.30;;;2.70;90.80;;;;;;2081575;28;20175;-67
2022/02/19 03:50:19;;;;;;;4.67;1.70;;;2.70;90.90;;;;;;2081815;28;20185;-68
2022/02/19 03:51:19;;;;;;;3.33;1.27;;;2.70;91.10;;;;;;2081666;28;20176;-68
2022/02/19 03:52:20;;;;;;;6.03;1.30;;;2.70;90.70;;;;;;2073238;28;20227;-65
2022/02/19 03:53:21;;;;;;;6.10;1.20;;;2.80;90.80;;;;;;2064703;28;20672;-68
2022/02/19 03:54:21;;;;;;;9.97;1.50;;;2.70;91.30;;;;;;2064743;28;20594;-68
2022/02/19 03:55:22;;;;;;;6.40;1.40;;;2.80;91.00;;;;;;2072518;28;20666;-68
2022/02/19 03:56:23;;;;;;;3.90;1.50;;;2.80;91.00;;;;;;2072937;28;20259;-67
2022/02/19 03:57:23;;;;;;;5.13;1.13;;;2.80;90.60;;;;;;2064700;28;20189;-68
2022/02/19 03:58:24;;;;;;;4.33;1.30;;;2.80;90.80;;;;;;2064808;28;20180;-68
2022/02/19 03:59:25;;;;;;;4.67;1.43;;;2.80;90.60;;;;;;2073554;28;20195;-68
2022/02/19 04:00:25;;;;;;;1.33;1.20;;;2.80;91.00;;;;;;2073220;28;20180;-68
2022/02/19 04:01:26;;;;;;;6.40;1.40;;;2.80;90.50;;;;;;2065042;28;20625;-67
2022/02/19 04:02:27;;;;;;;3.20;1.00;;;2.80;90.80;;;;;;2072965;28;20274;-69
2022/02/19 04:03:28;;;;;;;8.57;1.73;;;2.80;91.10;;;;;;2073146;28;20217;-68
2022/02/19 04:04:28;;;;;;;3.60;1.30;;;2.80;91.10;;;;;;2064748;28;20199;-68
2022/02/19 04:05:29;;;;;;;7.23;1.20;;;2.80;89.50;;;;;;2064502;28;20705;-68
2022/02/19 04:06:30;;;;;;;3.17;1.13;;;2.80;90.10;;;;;;2073065;28;20764;-68
2022/02/19 04:07:30;;;;;;;4.17;1.40;;;2.80;90.40;;;;;;2081585;28;20187;-67
2022/02/19 04:08:31;;;;;;;9.57;1.33;;;2.80;90.50;;;;;;2081571;28;20173;-68
2022/02/19 04:09:32;;;;;;;8.70;1.33;;;2.80;90.40;;;;;;2072825;28;20235;-68
2022/02/19 04:10:33;;;;;;;3.83;1.40;;;2.80;89.40;;;;;;2072831;28;21033;-68
2022/02/19 04:11:34;;;;;;;6.47;1.20;;;2.80;90.10;;;;;;2081566;28;20183;-68
2022/02/19 04:12:35;;;;;;;7.13;1.87;;;2.80;90.10;;;;;;2072837;28;20849;-68
2022/02/19 04:13:36;;;;;;;7.03;1.20;;;2.80;90.20;;;;;;2072996;28;20599;-68
2022/02/19 04:14:36;;;;;;;3.17;1.13;;;2.80;88.90;;;;;;2056670;28;20249;-68
2022/02/19 04:15:37;;;;;;;4.80;1.53;;;2.80;89.10;;;;;;2064608;28;20672;-68
2022/02/19 04:16:38;;;;;;;7.30;1.30;;;2.80;89.40;;;;;;2081424;28;20250;-68
2022/02/19 04:17:39;;;;;;;8.53;1.30;;;2.70;88.80;;;;;;2072773;28;20271;-67
2022/02/19 04:18:39;;;;;;;6.00;1.80;;;2.70;88.80;;;;;;2064972;28;20248;-67
2022/02/19 04:19:40;;;;;;;4.10;1.30;;;2.70;89.50;;;;;;2072907;28;20215;-68
2022/02/19 04:20:41;;;;;;;7.17;1.23;;;2.70;90.20;;;;;;2072582;28;20231;-69
2022/02/19 04:21:41;;;;;;;6.13;1.80;;;2.70;88.40;;;;;;2064412;28;20182;-68
2022/02/19 04:22:42;;;;;;;2.87;1.10;;;2.70;87.80;;;;;;2072496;28;20290;-68
2022/02/19 04:23:43;;;;;;;6.20;1.20;;;2.70;88.20;;;;;;2081498;28;20180;-69
2022/02/19 04:24:45;;;;;;;7.53;1.73;;;2.60;88.20;;;;;;2080982;28;20183;-68
2022/02/19 04:25:45;;;;;;;7.72;2.50;;;2.70;88.30;;;;;;2072287;28;20208;-68
2022/02/19 04:26:46;;;;;;;4.00;1.30;;;2.60;88.70;;;;;;2064334;28;20192;-68
2022/02/19 04:27:47;;;;;;;5.87;1.10;;;2.60;87.80;;;;;;2072770;28;20180;-68
2022/02/19 04:28:47;;;;;;;4.33;1.20;;;2.60;88.80;;;;;;2081512;28;20179;-67
2022/02/19 04:29:48;;;;;;;6.23;1.67;;;2.70;89.00;;;;;;2072511;28;20217;-68
2022/02/19 04:30:49;;;;;;;6.27;1.43;;;2.80;88.60;;;;;;2064444;28;20209;-68
2022/02/19 04:31:54;;;;;;;4.43;1.53;;;2.80;85.60;;;;;;2072690;28;20211;-68
2022/02/19 04:32:57;;;;;;;6.00;1.40;;;2.80;85.70;;;;;;2072482;28;20181;-68
2022/02/19 04:33:58;;;;;;;4.10;1.45;;;2.80;87.20;;;;;;2057336;28;20554;-68
2022/02/19 04:34:59;;;;;;;5.63;1.50;;;2.70;87.70;;;;;;2056843;28;20233;-68
2022/02/19 04:35:59;;;;;;;8.27;1.47;;;2.70;87.30;;;;;;2072198;28;20660;-68
2022/02/19 04:37:00;;;;;;;9.50;2.07;;;2.70;86.80;;;;;;2081380;28;20174;-68
2022/02/19 04:38:01;;;;;;;4.20;1.20;;;2.70;86.90;;;;;;2081314;28;20697;-68
2022/02/19 04:39:02;;;;;;;3.67;1.03;;;2.70;87.80;;;;;;2072542;28;20235;-68
2022/02/19 04:40:05;;;;;;;6.27;1.10;;;2.70;86.90;;;;;;2072501;28;20180;-68
2022/02/19 04:41:06;;;;;;;7.80;1.42;;;2.70;86.30;;;;;;2072596;28;20185;-68
2022/02/19 04:42:06;;;;;;;8.57;1.50;;;2.60;87.40;;;;;;2064512;28;20252;-68
2022/02/19 04:43:07;;;;;;;8.43;1.27;;;2.60;88.50;;;;;;2072418;28;20174;-68
2022/02/19 04:44:08;;;;;;;3.77;1.60;;;2.60;89.20;;;;;;2072420;28;20177;-68
2022/02/19 04:45:14;;;;;;;5.07;1.30;;;2.50;90.10;;;;;;2064292;28;20230;-68
2022/02/19 04:46:15;;;;;;;5.95;1.65;;;2.50;88.90;;;;;;2073381;28;20649;-68
2022/02/19 04:47:16;;;;;;;6.93;1.37;;;2.50;89.90;;;;;;2081224;28;20244;-68
2022/02/19 04:48:16;;;;;;;5.07;1.10;;;2.50;90.20;;;;;;2081128;28;20233;-68
2022/02/19 04:49:17;;;;;;;5.20;1.10;;;2.60;90.00;;;;;;2072471;28;20184;-68
2022/02/19 04:50:18;;;;;;;4.33;1.30;;;2.60;89.50;;;;;;2072448;28;20181;-69
2022/02/19 04:51:18;;;;;;;8.17;2.47;;;2.60;89.50;;;;;;2081450;28;20203;-68
2022/02/19 04:52:19;;;;;;;5.57;1.80;;;2.50;90.30;;;;;;2080602;28;21085;-68
2022/02/19 04:53:20;;;;;;;4.00;1.57;;;2.60;88.80;;;;;;2064473;28;20183;-67
2022/02/19 04:54:20;;;;;;;3.37;1.40;;;2.60;88.40;;;;;;2056362;28;20188;-68
2022/02/19 04:55:21;;;;;;;10.57;2.43;;;2.60;88.40;;;;;;2072218;28;20176;-68
2022/02/19 04:56:22;;;;;;;7.20;1.43;;;2.60;86.80;;;;;;2072350;28;20295;-68
2022/02/19 04:57:23;;;;;;;8.70;2.00;;;2.60;87.10;;;;;;2072472;28;20475;-68
2022/02/19 04:58:24;;;;;;;3.05;1.17;;;2.60;87.70;;;;;;2072333;28;20250;-68
2022/02/19 04:59:24;;;;;;;12.43;1.83;;;2.60;88.10;;;;;;2064216;28;20318;-68
2022/02/19 05:00:25;;;;;;;3.33;1.30;;;2.60;87.90;;;;;;2064071;28;21049;-68
2022/02/19 05:01:26;;;;;;;5.47;1.20;;;2.60;86.30;;;;;;2072048;28;20267;-68
2022/02/19 05:02:26;;;;;;;7.33;1.20;;;2.60;87.20;;;;;;2080770;28;20189;-68
2022/02/19 05:03:27;;;;;;;6.03;1.40;;;2.70;87.10;;;;;;2072374;28;20188;-67
2022/02/19 05:04:28;;;;;;;8.00;1.33;;;2.70;86.10;;;;;;2064117;28;20270;-68
2022/02/19 05:05:28;;;;;;;5.07;1.10;;;2.60;86.50;;;;;;2063909;28;20213;-68
2022/02/19 05:06:29;;;;;;;9.03;1.60;;;2.60;86.50;;;;;;2071996;28;20206;-68
2022/02/19 05:07:30;;;;;;;5.07;1.63;;;2.60;87.60;;;;;;2080789;28;20170;-67
2022/02/19 05:08:32;;;;;;;6.87;1.10;;;2.60;88.50;;;;;;2080725;28;20179;-68
2022/02/19 05:09:32;;;;;;;4.63;1.73;;;2.60;86.90;;;;;;2071924;28;20193;-68
2022/02/19 05:10:33;;;;;;;7.73;1.57;;;2.60;88.10;;;;;;2055751;28;20422;-68
2022/02/19 05:11:34;;;;;;;6.37;1.80;;;2.60;86.90;;;;;;2063863;28;20185;-68
2022/02/19 05:12:40;;;;;;;8.30;1.47;;;2.60;86.20;;;;;;2080762;28;20238;-68
2022/02/19 05:13:41;;;;;;;5.40;1.30;;;2.60;85.70;;;;;;2071985;28;20183;-68
2022/02/19 05:14:42;;;;;;;6.87;1.17;;;2.60;86.40;;;;;;2072752;28;20187;-68
2022/02/19 05:15:42;;;;;;;13.70;2.57;;;2.60;86.80;;;;;;2071700;28;20640;-68
2022/02/19 05:16:43;;;;;;;4.07;1.60;;;2.70;86.30;;;;;;2071927;28;20564;-68
2022/02/19 05:17:52;;;;;;;5.93;1.53;;;2.70;87.50;;;;;;2080739;28;20594;-68
2022/02/19 05:18:52;;;;;;;6.85;1.58;;;2.70;86.70;;;;;;2071875;28;20181;-68
2022/02/19 05:19:53;;;;;;;7.60;1.50;;;2.70;87.30;;;;;;2071942;28;20217;-68
2022/02/19 05:20:53;;;;;;;10.90;1.73;;;2.80;86.50;;;;;;2080573;28;20202;-68
2022/02/19 05:21:54;;;;;;;4.93;1.43;;;2.70;85.30;;;;;;2071310;28;20185;-68
2022/02/19 05:22:55;;;;;;;7.53;1.67;;;2.70;84.80;;;;;;2071873;28;20226;-68